sensor_id;sensor_type;location;lat;lon;timestamp;P1;durP1;ratioP1;P2;durP2;ratioP2
19151;SDS011;9708;53.114;9.388;2023-04-01T00:01:25;1.80;;;1.70;;
19151;SDS011;9708;53.114;9.388;2023-04-01T00:03:53;3.27;;;2.10;;
19151;SDS011;9708;53.114;9.388;2023-04-01T00:06:21;1.60;;;1.50;;
19151;SDS011;9708;53.114;9.388;2023-04-01T00:08:49;6.40;;;2.13;;
19151;SDS011;9708;53.114;9.388;2023-04-01T00:11:18;2.67;;;1.70;;
19151;SDS011;9708;53.114;9.388;2023-04-01T00:13:45;2.33;;;1.93;;
19151;SDS011;9708;53.114;9.388;2023-04-01T00:16:12;3.40;;;2.17;;
19151;SDS011;9708;53.114;9.388;2023-04-01T00:18:39;2.17;;;1.83;;
19151;SDS011;9708;53.114;9.388;2023-04-01T00:21:06;5.27;;;2.43;;
19151;SDS011;9708;53.114;9.388;2023-04-01T00:23:33;5.53;;;2.13;;
19151;SDS011;9708;53.114;9.388;2023-04-01T00:26:02;4.50;;;2.57;;
19151;SDS011;9708;53.114;9.388;2023-04-01T00:28:30;2.90;;;2.20;;
19151;SDS011;9708;53.114;9.388;2023-04-01T00:30:57;8.40;;;3.13;;
19151;SDS011;9708;53.114;9.388;2023-04-01T00:33:24;3.53;;;2.13;;
19151;SDS011;9708;53.114;9.388;2023-04-01T00:35:52;2.40;;;2.13;;
19151;SDS011;9708;53.114;9.388;2023-04-01T00:38:19;2.80;;;2.40;;
19151;SDS011;9708;53.114;9.388;2023-04-01T00:40:46;1.63;;;1.53;;
19151;SDS011;9708;53.114;9.388;2023-04-01T00:43:16;2.23;;;1.93;;
19151;SDS011;9708;53.114;9.388;2023-04-01T00:45:45;2.90;;;2.20;;
19151;SDS011;9708;53.114;9.388;2023-04-01T00:48:13;1.70;;;1.60;;
19151;SDS011;9708;53.114;9.388;2023-04-01T00:50:44;4.77;;;1.97;;
19151;SDS011;9708;53.114;9.388;2023-04-01T00:53:15;4.20;;;2.27;;
19151;SDS011;9708;53.114;9.388;2023-04-01T00:55:46;2.00;;;1.63;;
19151;SDS011;9708;53.114;9.388;2023-04-01T00:58:18;2.23;;;2.03;;
19151;SDS011;9708;53.114;9.388;2023-04-01T01:00:47;5.27;;;2.83;;
19151;SDS011;9708;53.114;9.388;2023-04-01T01:03:16;7.00;;;2.43;;
19151;SDS011;9708;53.114;9.388;2023-04-01T01:05:48;3.83;;;2.03;;
19151;SDS011;9708;53.114;9.388;2023-04-01T01:08:39;2.03;;;1.70;;
19151;SDS011;9708;53.114;9.388;2023-04-01T01:11:27;2.80;;;1.93;;
19151;SDS011;9708;53.114;9.388;2023-04-01T01:14:04;4.43;;;2.20;;
19151;SDS011;9708;53.114;9.388;2023-04-01T01:16:48;1.87;;;1.73;;
19151;SDS011;9708;53.114;9.388;2023-04-01T01:19:25;2.93;;;2.20;;
19151;SDS011;9708;53.114;9.388;2023-04-01T01:22:22;7.43;;;2.27;;
19151;SDS011;9708;53.114;9.388;2023-04-01T01:25:16;2.13;;;1.63;;
19151;SDS011;9708;53.114;9.388;2023-04-01T01:27:54;1.83;;;1.70;;
19151;SDS011;9708;53.114;9.388;2023-04-01T01:30:38;6.23;;;2.40;;
19151;SDS011;9708;53.114;9.388;2023-04-01T01:33:14;4.27;;;2.93;;
19151;SDS011;9708;53.114;9.388;2023-04-01T01:35:53;8.87;;;2.13;;
19151;SDS011;9708;53.114;9.388;2023-04-01T01:38:22;2.73;;;2.30;;
19151;SDS011;9708;53.114;9.388;2023-04-01T01:40:51;2.53;;;2.20;;
19151;SDS011;9708;53.114;9.388;2023-04-01T01:43:23;2.30;;;2.10;;
19151;SDS011;9708;53.114;9.388;2023-04-01T01:45:54;2.53;;;2.07;;
19151;SDS011;9708;53.114;9.388;2023-04-01T01:48:23;4.73;;;2.43;;
19151;SDS011;9708;53.114;9.388;2023-04-01T01:50:54;2.53;;;1.67;;
19151;SDS011;9708;53.114;9.388;2023-04-01T01:53:21;2.70;;;2.43;;
19151;SDS011;9708;53.114;9.388;2023-04-01T01:55:48;3.07;;;1.63;;
19151;SDS011;9708;53.114;9.388;2023-04-01T01:58:16;2.77;;;2.43;;
19151;SDS011;9708;53.114;9.388;2023-04-01T02:00:46;3.63;;;2.10;;
19151;SDS011;9708;53.114;9.388;2023-04-01T02:03:17;4.67;;;2.03;;
19151;SDS011;9708;53.114;9.388;2023-04-01T02:05:46;2.33;;;2.13;;
19151;SDS011;9708;53.114;9.388;2023-04-01T02:08:15;3.27;;;1.87;;
19151;SDS011;9708;53.114;9.388;2023-04-01T02:10:48;2.00;;;1.70;;
19151;SDS011;9708;53.114;9.388;2023-04-01T02:13:22;1.40;;;1.30;;
19151;SDS011;9708;53.114;9.388;2023-04-01T02:15:56;1.60;;;1.13;;
19151;SDS011;9708;53.114;9.388;2023-04-01T02:18:29;3.23;;;2.00;;
19151;SDS011;9708;53.114;9.388;2023-04-01T02:20:58;3.67;;;2.07;;
19151;SDS011;9708;53.114;9.388;2023-04-01T02:23:28;3.23;;;2.40;;
19151;SDS011;9708;53.114;9.388;2023-04-01T02:25:55;5.73;;;1.67;;
19151;SDS011;9708;53.114;9.388;2023-04-01T02:28:22;1.97;;;1.83;;
19151;SDS011;9708;53.114;9.388;2023-04-01T02:30:51;2.53;;;1.77;;
19151;SDS011;9708;53.114;9.388;2023-04-01T02:33:19;2.73;;;2.40;;
19151;SDS011;9708;53.114;9.388;2023-04-01T02:35:47;6.60;;;2.43;;
19151;SDS011;9708;53.114;9.388;2023-04-01T02:38:14;2.30;;;2.10;;
19151;SDS011;9708;53.114;9.388;2023-04-01T02:40:43;3.90;;;2.03;;
19151;SDS011;9708;53.114;9.388;2023-04-01T02:43:11;6.10;;;1.87;;
19151;SDS011;9708;53.114;9.388;2023-04-01T02:45:38;3.67;;;2.00;;
19151;SDS011;9708;53.114;9.388;2023-04-01T02:48:05;3.50;;;2.00;;
19151;SDS011;9708;53.114;9.388;2023-04-01T02:50:32;3.37;;;1.83;;
19151;SDS011;9708;53.114;9.388;2023-04-01T02:52:59;2.47;;;2.27;;
19151;SDS011;9708;53.114;9.388;2023-04-01T02:55:27;2.17;;;1.97;;
19151;SDS011;9708;53.114;9.388;2023-04-01T02:57:56;6.23;;;2.20;;
19151;SDS011;9708;53.114;9.388;2023-04-01T03:00:23;3.07;;;2.27;;
19151;SDS011;9708;53.114;9.388;2023-04-01T03:02:51;2.00;;;1.53;;
19151;SDS011;9708;53.114;9.388;2023-04-01T03:05:18;4.07;;;2.10;;
19151;SDS011;9708;53.114;9.388;2023-04-01T03:07:46;2.67;;;1.83;;
19151;SDS011;9708;53.114;9.388;2023-04-01T03:10:13;2.47;;;1.90;;
19151;SDS011;9708;53.114;9.388;2023-04-01T03:12:39;2.17;;;1.67;;
19151;SDS011;9708;53.114;9.388;2023-04-01T03:15:08;2.00;;;1.80;;
19151;SDS011;9708;53.114;9.388;2023-04-01T03:17:36;1.80;;;1.70;;
19151;SDS011;9708;53.114;9.388;2023-04-01T03:20:03;2.87;;;2.17;;
19151;SDS011;9708;53.114;9.388;2023-04-01T03:22:31;2.67;;;2.13;;
19151;SDS011;9708;53.114;9.388;2023-04-01T03:24:57;1.63;;;1.53;;
19151;SDS011;9708;53.114;9.388;2023-04-01T03:27:24;1.77;;;1.63;;
19151;SDS011;9708;53.114;9.388;2023-04-01T03:29:51;1.93;;;1.73;;
19151;SDS011;9708;53.114;9.388;2023-04-01T03:32:19;5.37;;;2.37;;
19151;SDS011;9708;53.114;9.388;2023-04-01T03:34:46;2.97;;;2.30;;
19151;SDS011;9708;53.114;9.388;2023-04-01T03:37:13;1.33;;;1.23;;
19151;SDS011;9708;53.114;9.388;2023-04-01T03:39:40;2.50;;;1.77;;
19151;SDS011;9708;53.114;9.388;2023-04-01T03:42:07;6.10;;;2.10;;
19151;SDS011;9708;53.114;9.388;2023-04-01T03:44:33;2.97;;;2.07;;
19151;SDS011;9708;53.114;9.388;2023-04-01T03:47:00;2.60;;;2.23;;
19151;SDS011;9708;53.114;9.388;2023-04-01T03:49:29;1.70;;;1.60;;
19151;SDS011;9708;53.114;9.388;2023-04-01T03:51:57;2.03;;;1.87;;
19151;SDS011;9708;53.114;9.388;2023-04-01T03:54:24;2.47;;;2.27;;
19151;SDS011;9708;53.114;9.388;2023-04-01T03:56:51;2.37;;;1.97;;
19151;SDS011;9708;53.114;9.388;2023-04-01T03:59:18;2.80;;;2.47;;
19151;SDS011;9708;53.114;9.388;2023-04-01T04:01:45;2.77;;;1.60;;
19151;SDS011;9708;53.114;9.388;2023-04-01T04:04:13;2.90;;;2.63;;
19151;SDS011;9708;53.114;9.388;2023-04-01T04:06:42;1.60;;;1.50;;
19151;SDS011;9708;53.114;9.388;2023-04-01T04:09:09;2.47;;;1.80;;
19151;SDS011;9708;53.114;9.388;2023-04-01T04:11:35;2.63;;;2.37;;
19151;SDS011;9708;53.114;9.388;2023-04-01T04:14:02;3.67;;;2.30;;
19151;SDS011;9708;53.114;9.388;2023-04-01T04:16:29;3.50;;;2.13;;
19151;SDS011;9708;53.114;9.388;2023-04-01T04:18:56;3.30;;;2.37;;
19151;SDS011;9708;53.114;9.388;2023-04-01T04:21:23;1.93;;;1.77;;
19151;SDS011;9708;53.114;9.388;2023-04-01T04:23:51;1.70;;;1.60;;
19151;SDS011;9708;53.114;9.388;2023-04-01T04:26:17;2.40;;;2.13;;
19151;SDS011;9708;53.114;9.388;2023-04-01T04:28:44;1.97;;;1.80;;
19151;SDS011;9708;53.114;9.388;2023-04-01T04:31:11;2.03;;;1.67;;
19151;SDS011;9708;53.114;9.388;2023-04-01T04:33:43;1.97;;;1.70;;
19151;SDS011;9708;53.114;9.388;2023-04-01T04:36:10;3.13;;;2.10;;
19151;SDS011;9708;53.114;9.388;2023-04-01T04:38:37;2.43;;;2.13;;
19151;SDS011;9708;53.114;9.388;2023-04-01T04:41:09;3.07;;;2.40;;
19151;SDS011;9708;53.114;9.388;2023-04-01T04:43:36;4.93;;;2.27;;
19151;SDS011;9708;53.114;9.388;2023-04-01T04:46:04;2.00;;;1.70;;
19151;SDS011;9708;53.114;9.388;2023-04-01T04:48:31;2.50;;;1.83;;
19151;SDS011;9708;53.114;9.388;2023-04-01T04:50:58;2.43;;;2.13;;
19151;SDS011;9708;53.114;9.388;2023-04-01T04:53:25;2.23;;;2.03;;
19151;SDS011;9708;53.114;9.388;2023-04-01T04:55:52;2.10;;;1.70;;
19151;SDS011;9708;53.114;9.388;2023-04-01T04:58:21;2.07;;;1.87;;
19151;SDS011;9708;53.114;9.388;2023-04-01T05:00:47;1.90;;;1.80;;
19151;SDS011;9708;53.114;9.388;2023-04-01T05:03:14;6.33;;;2.37;;
19151;SDS011;9708;53.114;9.388;2023-04-01T05:05:47;3.43;;;1.93;;
19151;SDS011;9708;53.114;9.388;2023-04-01T05:08:15;2.30;;;2.10;;
19151;SDS011;9708;53.114;9.388;2023-04-01T05:10:42;2.23;;;1.73;;
19151;SDS011;9708;53.114;9.388;2023-04-01T05:13:09;1.70;;;1.60;;
19151;SDS011;9708;53.114;9.388;2023-04-01T05:15:37;1.67;;;1.57;;
19151;SDS011;9708;53.114;9.388;2023-04-01T05:18:04;2.33;;;2.13;;
19151;SDS011;9708;53.114;9.388;2023-04-01T05:20:31;5.60;;;2.30;;
19151;SDS011;9708;53.114;9.388;2023-04-01T05:22:58;2.60;;;1.87;;
19151;SDS011;9708;53.114;9.388;2023-04-01T05:25:25;2.03;;;1.40;;
19151;SDS011;9708;53.114;9.388;2023-04-01T05:27:52;2.30;;;1.60;;
19151;SDS011;9708;53.114;9.388;2023-04-01T05:30:19;2.73;;;1.53;;
19151;SDS011;9708;53.114;9.388;2023-04-01T05:32:47;2.27;;;1.40;;
19151;SDS011;9708;53.114;9.388;2023-04-01T05:35:14;1.23;;;1.13;;
19151;SDS011;9708;53.114;9.388;2023-04-01T05:37:41;3.10;;;2.20;;
19151;SDS011;9708;53.114;9.388;2023-04-01T05:40:08;1.77;;;1.67;;
19151;SDS011;9708;53.114;9.388;2023-04-01T05:42:35;4.73;;;2.30;;
19151;SDS011;9708;53.114;9.388;2023-04-01T05:45:02;0.93;;;0.93;;
19151;SDS011;9708;53.114;9.388;2023-04-01T05:47:30;1.77;;;1.40;;
19151;SDS011;9708;53.114;9.388;2023-04-01T05:49:58;1.33;;;1.23;;
19151;SDS011;9708;53.114;9.388;2023-04-01T05:52:24;1.85;;;1.70;;
19151;SDS011;9708;53.114;9.388;2023-04-01T05:54:51;2.63;;;1.83;;
19151;SDS011;9708;53.114;9.388;2023-04-01T05:57:18;2.47;;;1.40;;
19151;SDS011;9708;53.114;9.388;2023-04-01T05:59:45;5.87;;;1.87;;
19151;SDS011;9708;53.114;9.388;2023-04-01T06:02:12;1.40;;;1.30;;
19151;SDS011;9708;53.114;9.388;2023-04-01T06:04:42;1.50;;;1.40;;
19151;SDS011;9708;53.114;9.388;2023-04-01T06:07:14;2.10;;;1.63;;
19151;SDS011;9708;53.114;9.388;2023-04-01T06:09:42;2.13;;;1.67;;
19151;SDS011;9708;53.114;9.388;2023-04-01T06:12:19;1.30;;;1.20;;
19151;SDS011;9708;53.114;9.388;2023-04-01T06:14:57;2.27;;;1.70;;
19151;SDS011;9708;53.114;9.388;2023-04-01T06:17:37;2.80;;;1.50;;
19151;SDS011;9708;53.114;9.388;2023-04-01T06:20:15;6.20;;;1.77;;
19151;SDS011;9708;53.114;9.388;2023-04-01T06:22:54;1.40;;;1.23;;
19151;SDS011;9708;53.114;9.388;2023-04-01T06:25:40;1.67;;;1.10;;
19151;SDS011;9708;53.114;9.388;2023-04-01T06:28:27;5.10;;;3.30;;
19151;SDS011;9708;53.114;9.388;2023-04-01T06:31:10;1.87;;;1.37;;
19151;SDS011;9708;53.114;9.388;2023-04-01T06:33:50;2.17;;;1.40;;
19151;SDS011;9708;53.114;9.388;2023-04-01T06:36:39;4.33;;;2.10;;
19151;SDS011;9708;53.114;9.388;2023-04-01T06:39:34;3.73;;;1.50;;
19151;SDS011;9708;53.114;9.388;2023-04-01T06:42:11;1.90;;;1.77;;
19151;SDS011;9708;53.114;9.388;2023-04-01T06:45:04;2.17;;;1.50;;
19151;SDS011;9708;53.114;9.388;2023-04-01T06:47:43;1.30;;;1.20;;
19151;SDS011;9708;53.114;9.388;2023-04-01T06:50:19;4.20;;;1.30;;
19151;SDS011;9708;53.114;9.388;2023-04-01T06:52:53;1.37;;;1.17;;
19151;SDS011;9708;53.114;9.388;2023-04-01T06:55:29;2.00;;;1.53;;
19151;SDS011;9708;53.114;9.388;2023-04-01T06:58:03;0.70;;;0.70;;
19151;SDS011;9708;53.114;9.388;2023-04-01T07:00:32;3.03;;;1.73;;
19151;SDS011;9708;53.114;9.388;2023-04-01T07:03:04;1.57;;;1.00;;
19151;SDS011;9708;53.114;9.388;2023-04-01T07:05:38;1.63;;;1.10;;
19151;SDS011;9708;53.114;9.388;2023-04-01T07:08:08;2.03;;;1.53;;
19151;SDS011;9708;53.114;9.388;2023-04-01T07:10:41;1.30;;;1.20;;
19151;SDS011;9708;53.114;9.388;2023-04-01T07:13:12;1.70;;;1.00;;
19151;SDS011;9708;53.114;9.388;2023-04-01T07:15:43;1.43;;;1.43;;
19151;SDS011;9708;53.114;9.388;2023-04-01T07:18:16;1.20;;;1.10;;
19151;SDS011;9708;53.114;9.388;2023-04-01T07:20:48;0.90;;;0.90;;
19151;SDS011;9708;53.114;9.388;2023-04-01T07:23:16;3.10;;;1.07;;
19151;SDS011;9708;53.114;9.388;2023-04-01T07:25:52;1.63;;;0.93;;
19151;SDS011;9708;53.114;9.388;2023-04-01T07:28:26;0.90;;;0.90;;
19151;SDS011;9708;53.114;9.388;2023-04-01T07:30:58;1.17;;;1.07;;
19151;SDS011;9708;53.114;9.388;2023-04-01T07:33:33;3.33;;;1.23;;
19151;SDS011;9708;53.114;9.388;2023-04-01T07:36:06;1.00;;;1.00;;
19151;SDS011;9708;53.114;9.388;2023-04-01T07:38:40;1.00;;;1.00;;
19151;SDS011;9708;53.114;9.388;2023-04-01T07:41:19;3.00;;;1.53;;
19151;SDS011;9708;53.114;9.388;2023-04-01T07:43:57;2.93;;;0.70;;
19151;SDS011;9708;53.114;9.388;2023-04-01T07:49:28;0.97;;;0.90;;
19151;SDS011;9708;53.114;9.388;2023-04-01T07:52:00;4.50;;;1.37;;
19151;SDS011;9708;53.114;9.388;2023-04-01T07:54:33;0.93;;;0.93;;
19151;SDS011;9708;53.114;9.388;2023-04-01T07:57:09;0.93;;;0.93;;
19151;SDS011;9708;53.114;9.388;2023-04-01T07:59:43;0.70;;;0.70;;
19151;SDS011;9708;53.114;9.388;2023-04-01T08:02:19;1.97;;;1.37;;
19151;SDS011;9708;53.114;9.388;2023-04-01T08:04:57;2.30;;;1.10;;
19151;SDS011;9708;53.114;9.388;2023-04-01T08:07:30;1.00;;;0.97;;
19151;SDS011;9708;53.114;9.388;2023-04-01T08:10:09;1.20;;;1.10;;
19151;SDS011;9708;53.114;9.388;2023-04-01T08:12:44;0.80;;;0.80;;
19151;SDS011;9708;53.114;9.388;2023-04-01T08:15:19;2.10;;;0.80;;
19151;SDS011;9708;53.114;9.388;2023-04-01T08:17:58;1.00;;;1.00;;
19151;SDS011;9708;53.114;9.388;2023-04-01T08:20:37;6.57;;;3.27;;
19151;SDS011;9708;53.114;9.388;2023-04-01T08:23:11;1.00;;;1.00;;
19151;SDS011;9708;53.114;9.388;2023-04-01T08:25:40;1.20;;;1.10;;
19151;SDS011;9708;53.114;9.388;2023-04-01T08:28:15;3.23;;;1.30;;
19151;SDS011;9708;53.114;9.388;2023-04-01T08:30:47;1.00;;;0.93;;
19151;SDS011;9708;53.114;9.388;2023-04-01T08:33:17;1.17;;;1.00;;
19151;SDS011;9708;53.114;9.388;2023-04-01T08:35:49;0.80;;;0.80;;
19151;SDS011;9708;53.114;9.388;2023-04-01T08:38:22;0.90;;;0.90;;
19151;SDS011;9708;53.114;9.388;2023-04-01T08:40:55;0.97;;;0.97;;
19151;SDS011;9708;53.114;9.388;2023-04-01T08:49:35;0.97;;;0.97;;
19151;SDS011;9708;53.114;9.388;2023-04-01T08:52:18;1.70;;;1.03;;
19151;SDS011;9708;53.114;9.388;2023-04-01T08:58:07;2.73;;;1.00;;
19151;SDS011;9708;53.114;9.388;2023-04-01T09:00:47;0.90;;;0.73;;
19151;SDS011;9708;53.114;9.388;2023-04-01T09:06:24;1.80;;;0.90;;
19151;SDS011;9708;53.114;9.388;2023-04-01T09:09:06;1.90;;;1.10;;
19151;SDS011;9708;53.114;9.388;2023-04-01T09:11:57;0.80;;;0.80;;
19151;SDS011;9708;53.114;9.388;2023-04-01T09:14:43;0.80;;;0.80;;
19151;SDS011;9708;53.114;9.388;2023-04-01T09:20:44;0.80;;;0.80;;
19151;SDS011;9708;53.114;9.388;2023-04-01T09:29:13;0.67;;;0.67;;
19151;SDS011;9708;53.114;9.388;2023-04-01T09:31:57;0.70;;;0.70;;
19151;SDS011;9708;53.114;9.388;2023-04-01T09:34:51;0.50;;;0.50;;
19151;SDS011;9708;53.114;9.388;2023-04-01T09:37:25;0.50;;;0.50;;
19151;SDS011;9708;53.114;9.388;2023-04-01T09:40:03;0.40;;;0.40;;
19151;SDS011;9708;53.114;9.388;2023-04-01T09:42:45;0.50;;;0.50;;
19151;SDS011;9708;53.114;9.388;2023-04-01T09:45:23;0.60;;;0.60;;
19151;SDS011;9708;53.114;9.388;2023-04-01T09:48:02;0.60;;;0.60;;
19151;SDS011;9708;53.114;9.388;2023-04-01T09:50:39;0.50;;;0.50;;
19151;SDS011;9708;53.114;9.388;2023-04-01T09:53:19;0.60;;;0.60;;
19151;SDS011;9708;53.114;9.388;2023-04-01T10:02:31;0.50;;;0.50;;
19151;SDS011;9708;53.114;9.388;2023-04-01T10:05:25;0.50;;;0.50;;
19151;SDS011;9708;53.114;9.388;2023-04-01T10:11:10;1.03;;;0.90;;
19151;SDS011;9708;53.114;9.388;2023-04-01T10:16:49;1.30;;;0.77;;
19151;SDS011;9708;53.114;9.388;2023-04-01T10:19:51;0.47;;;0.47;;
19151;SDS011;9708;53.114;9.388;2023-04-01T10:25:39;0.50;;;0.50;;
19151;SDS011;9708;53.114;9.388;2023-04-01T10:28:41;0.47;;;0.47;;
19151;SDS011;9708;53.114;9.388;2023-04-01T10:34:56;0.63;;;0.60;;
19151;SDS011;9708;53.114;9.388;2023-04-01T10:37:55;0.53;;;0.53;;
19151;SDS011;9708;53.114;9.388;2023-04-01T10:43:50;0.60;;;0.60;;
19151;SDS011;9708;53.114;9.388;2023-04-01T10:46:41;0.60;;;0.60;;
19151;SDS011;9708;53.114;9.388;2023-04-01T10:49:47;0.60;;;0.60;;
19151;SDS011;9708;53.114;9.388;2023-04-01T10:52:56;0.50;;;0.50;;
19151;SDS011;9708;53.114;9.388;2023-04-01T11:08:33;0.80;;;0.80;;
19151;SDS011;9708;53.114;9.388;2023-04-01T11:11:35;0.80;;;0.80;;
19151;SDS011;9708;53.114;9.388;2023-04-01T11:14:41;1.23;;;0.80;;
19151;SDS011;9708;53.114;9.388;2023-04-01T11:20:40;0.57;;;0.57;;
19151;SDS011;9708;53.114;9.388;2023-04-01T11:23:23;1.80;;;0.97;;
19151;SDS011;9708;53.114;9.388;2023-04-01T11:26:04;0.60;;;0.60;;
19151;SDS011;9708;53.114;9.388;2023-04-01T11:28:40;0.77;;;0.77;;
19151;SDS011;9708;53.114;9.388;2023-04-01T11:31:34;0.70;;;0.70;;
19151;SDS011;9708;53.114;9.388;2023-04-01T11:34:09;0.93;;;0.93;;
19151;SDS011;9708;53.114;9.388;2023-04-01T11:36:45;0.70;;;0.70;;
19151;SDS011;9708;53.114;9.388;2023-04-01T11:39:20;0.73;;;0.73;;
19151;SDS011;9708;53.114;9.388;2023-04-01T11:41:56;0.73;;;0.73;;
19151;SDS011;9708;53.114;9.388;2023-04-01T11:44:31;1.27;;;1.10;;
19151;SDS011;9708;53.114;9.388;2023-04-01T11:50:03;0.80;;;0.80;;
19151;SDS011;9708;53.114;9.388;2023-04-01T11:52:52;0.80;;;0.80;;
19151;SDS011;9708;53.114;9.388;2023-04-01T11:55:31;0.80;;;0.80;;
19151;SDS011;9708;53.114;9.388;2023-04-01T12:01:18;0.70;;;0.70;;
19151;SDS011;9708;53.114;9.388;2023-04-01T12:06:59;1.27;;;1.07;;
19151;SDS011;9708;53.114;9.388;2023-04-01T12:09:34;0.80;;;0.80;;
19151;SDS011;9708;53.114;9.388;2023-04-01T12:12:12;0.70;;;0.70;;
19151;SDS011;9708;53.114;9.388;2023-04-01T12:14:50;1.20;;;1.10;;
19151;SDS011;9708;53.114;9.388;2023-04-01T12:17:28;0.93;;;0.93;;
19151;SDS011;9708;53.114;9.388;2023-04-01T12:20:10;0.70;;;0.70;;
19151;SDS011;9708;53.114;9.388;2023-04-01T12:22:50;1.23;;;0.77;;
19151;SDS011;9708;53.114;9.388;2023-04-01T12:25:35;0.70;;;0.70;;
19151;SDS011;9708;53.114;9.388;2023-04-01T12:28:18;0.70;;;0.70;;
19151;SDS011;9708;53.114;9.388;2023-04-01T12:30:54;0.80;;;0.80;;
19151;SDS011;9708;53.114;9.388;2023-04-01T12:33:41;0.57;;;0.57;;
19151;SDS011;9708;53.114;9.388;2023-04-01T12:36:22;0.50;;;0.50;;
19151;SDS011;9708;53.114;9.388;2023-04-01T12:39:05;0.80;;;0.80;;
19151;SDS011;9708;53.114;9.388;2023-04-01T12:41:49;0.83;;;0.73;;
19151;SDS011;9708;53.114;9.388;2023-04-01T12:47:27;1.37;;;0.90;;
19151;SDS011;9708;53.114;9.388;2023-04-01T12:50:18;0.90;;;0.90;;
19151;SDS011;9708;53.114;9.388;2023-04-01T12:53:02;0.70;;;0.70;;
19151;SDS011;9708;53.114;9.388;2023-04-01T12:55:43;0.73;;;0.73;;
19151;SDS011;9708;53.114;9.388;2023-04-01T13:04:05;0.60;;;0.60;;
19151;SDS011;9708;53.114;9.388;2023-04-01T13:06:54;0.80;;;0.80;;
19151;SDS011;9708;53.114;9.388;2023-04-01T13:09:34;0.60;;;0.60;;
19151;SDS011;9708;53.114;9.388;2023-04-01T13:12:23;0.67;;;0.67;;
19151;SDS011;9708;53.114;9.388;2023-04-01T13:17:58;0.60;;;0.60;;
19151;SDS011;9708;53.114;9.388;2023-04-01T13:20:36;0.53;;;0.53;;
19151;SDS011;9708;53.114;9.388;2023-04-01T13:23:14;0.80;;;0.80;;
19151;SDS011;9708;53.114;9.388;2023-04-01T13:25:53;0.93;;;0.90;;
19151;SDS011;9708;53.114;9.388;2023-04-01T13:28:32;0.70;;;0.70;;
19151;SDS011;9708;53.114;9.388;2023-04-01T13:31:05;0.77;;;0.77;;
19151;SDS011;9708;53.114;9.388;2023-04-01T13:33:40;0.60;;;0.60;;
19151;SDS011;9708;53.114;9.388;2023-04-01T13:36:16;1.47;;;0.53;;
19151;SDS011;9708;53.114;9.388;2023-04-01T13:38:57;0.70;;;0.70;;
19151;SDS011;9708;53.114;9.388;2023-04-01T13:42:00;0.50;;;0.50;;
19151;SDS011;9708;53.114;9.388;2023-04-01T13:44:40;0.50;;;0.50;;
19151;SDS011;9708;53.114;9.388;2023-04-01T13:47:24;0.70;;;0.70;;
19151;SDS011;9708;53.114;9.388;2023-04-01T13:50:23;0.50;;;0.50;;
19151;SDS011;9708;53.114;9.388;2023-04-01T13:53:11;0.70;;;0.70;;
19151;SDS011;9708;53.114;9.388;2023-04-01T13:58:54;0.73;;;0.60;;
19151;SDS011;9708;53.114;9.388;2023-04-01T14:01:31;0.60;;;0.60;;
19151;SDS011;9708;53.114;9.388;2023-04-01T14:07:13;0.90;;;0.90;;
19151;SDS011;9708;53.114;9.388;2023-04-01T14:10:05;0.60;;;0.60;;
19151;SDS011;9708;53.114;9.388;2023-04-01T14:12:42;1.30;;;1.20;;
19151;SDS011;9708;53.114;9.388;2023-04-01T14:15:17;1.20;;;1.10;;
19151;SDS011;9708;53.114;9.388;2023-04-01T14:18:01;1.67;;;0.90;;
19151;SDS011;9708;53.114;9.388;2023-04-01T14:20:42;0.97;;;0.93;;
19151;SDS011;9708;53.114;9.388;2023-04-01T14:23:24;1.10;;;1.00;;
19151;SDS011;9708;53.114;9.388;2023-04-01T14:26:07;1.27;;;1.17;;
19151;SDS011;9708;53.114;9.388;2023-04-01T14:28:46;1.93;;;1.27;;
19151;SDS011;9708;53.114;9.388;2023-04-01T14:31:34;1.30;;;1.20;;
19151;SDS011;9708;53.114;9.388;2023-04-01T14:34:12;3.63;;;1.57;;
19151;SDS011;9708;53.114;9.388;2023-04-01T14:36:54;0.70;;;0.70;;
19151;SDS011;9708;53.114;9.388;2023-04-01T14:42:31;1.53;;;1.07;;
19151;SDS011;9708;53.114;9.388;2023-04-01T14:48:17;1.00;;;1.00;;
19151;SDS011;9708;53.114;9.388;2023-04-01T14:50:49;0.97;;;0.97;;
19151;SDS011;9708;53.114;9.388;2023-04-01T14:53:24;1.37;;;1.00;;
19151;SDS011;9708;53.114;9.388;2023-04-01T14:55:54;1.93;;;0.97;;
19151;SDS011;9708;53.114;9.388;2023-04-01T14:58:23;1.37;;;1.27;;
19151;SDS011;9708;53.114;9.388;2023-04-01T15:01:10;1.17;;;1.00;;
19151;SDS011;9708;53.114;9.388;2023-04-01T15:03:50;1.23;;;1.13;;
19151;SDS011;9708;53.114;9.388;2023-04-01T15:06:35;1.83;;;1.60;;
19151;SDS011;9708;53.114;9.388;2023-04-01T15:09:13;2.43;;;1.47;;
19151;SDS011;9708;53.114;9.388;2023-04-01T15:11:58;1.40;;;1.03;;
19151;SDS011;9708;53.114;9.388;2023-04-01T15:17:31;1.13;;;1.13;;
19151;SDS011;9708;53.114;9.388;2023-04-01T15:20:21;1.00;;;0.90;;
19151;SDS011;9708;53.114;9.388;2023-04-01T15:22:58;1.93;;;1.77;;
19151;SDS011;9708;53.114;9.388;2023-04-01T15:25:51;1.47;;;1.27;;
19151;SDS011;9708;53.114;9.388;2023-04-01T15:28:34;2.03;;;0.97;;
19151;SDS011;9708;53.114;9.388;2023-04-01T15:31:06;0.87;;;0.87;;
19151;SDS011;9708;53.114;9.388;2023-04-01T15:33:42;1.17;;;1.17;;
19151;SDS011;9708;53.114;9.388;2023-04-01T15:36:27;2.60;;;1.50;;
19151;SDS011;9708;53.114;9.388;2023-04-01T15:39:03;1.53;;;1.00;;
19151;SDS011;9708;53.114;9.388;2023-04-01T15:41:39;1.10;;;1.10;;
19151;SDS011;9708;53.114;9.388;2023-04-01T15:44:26;1.67;;;1.20;;
19151;SDS011;9708;53.114;9.388;2023-04-01T15:47:08;1.23;;;1.10;;
19151;SDS011;9708;53.114;9.388;2023-04-01T15:50:12;2.20;;;1.47;;
19151;SDS011;9708;53.114;9.388;2023-04-01T15:53:05;1.13;;;1.07;;
19151;SDS011;9708;53.114;9.388;2023-04-01T15:55:52;1.33;;;1.23;;
19151;SDS011;9708;53.114;9.388;2023-04-01T15:58:32;1.10;;;1.00;;
19151;SDS011;9708;53.114;9.388;2023-04-01T16:01:15;8.63;;;1.53;;
19151;SDS011;9708;53.114;9.388;2023-04-01T16:03:51;1.77;;;0.93;;
19151;SDS011;9708;53.114;9.388;2023-04-01T16:09:19;2.03;;;1.60;;
19151;SDS011;9708;53.114;9.388;2023-04-01T16:11:56;1.00;;;1.00;;
19151;SDS011;9708;53.114;9.388;2023-04-01T16:14:33;1.20;;;1.10;;
19151;SDS011;9708;53.114;9.388;2023-04-01T16:17:16;1.60;;;1.50;;
19151;SDS011;9708;53.114;9.388;2023-04-01T16:19:52;1.83;;;1.33;;
19151;SDS011;9708;53.114;9.388;2023-04-01T16:22:23;2.10;;;1.57;;
19151;SDS011;9708;53.114;9.388;2023-04-01T16:24:55;1.70;;;1.33;;
19151;SDS011;9708;53.114;9.388;2023-04-01T16:27:40;1.13;;;1.13;;
19151;SDS011;9708;53.114;9.388;2023-04-01T16:30:22;0.83;;;0.83;;
19151;SDS011;9708;53.114;9.388;2023-04-01T16:32:59;1.33;;;1.17;;
19151;SDS011;9708;53.114;9.388;2023-04-01T16:35:35;1.20;;;1.10;;
19151;SDS011;9708;53.114;9.388;2023-04-01T16:38:12;1.40;;;1.30;;
19151;SDS011;9708;53.114;9.388;2023-04-01T16:40:49;1.90;;;1.80;;
19151;SDS011;9708;53.114;9.388;2023-04-01T16:43:27;2.20;;;2.00;;
19151;SDS011;9708;53.114;9.388;2023-04-01T16:48:58;2.63;;;2.23;;
19151;SDS011;9708;53.114;9.388;2023-04-01T16:51:41;5.23;;;1.93;;
19151;SDS011;9708;53.114;9.388;2023-04-01T16:54:14;2.83;;;2.07;;
19151;SDS011;9708;53.114;9.388;2023-04-01T16:56:55;4.20;;;1.67;;
19151;SDS011;9708;53.114;9.388;2023-04-01T16:59:29;1.37;;;1.27;;
19151;SDS011;9708;53.114;9.388;2023-04-01T17:02:03;7.83;;;2.17;;
19151;SDS011;9708;53.114;9.388;2023-04-01T17:04:36;1.43;;;1.33;;
19151;SDS011;9708;53.114;9.388;2023-04-01T17:07:11;2.20;;;1.77;;
19151;SDS011;9708;53.114;9.388;2023-04-01T17:10:02;1.90;;;1.80;;
19151;SDS011;9708;53.114;9.388;2023-04-01T17:12:44;1.93;;;1.80;;
19151;SDS011;9708;53.114;9.388;2023-04-01T17:15:20;3.00;;;2.07;;
19151;SDS011;9708;53.114;9.388;2023-04-01T17:17:54;2.57;;;2.37;;
19151;SDS011;9708;53.114;9.388;2023-04-01T17:20:31;2.03;;;1.93;;
19151;SDS011;9708;53.114;9.388;2023-04-01T17:23:07;1.67;;;1.30;;
19151;SDS011;9708;53.114;9.388;2023-04-01T17:25:46;1.80;;;1.70;;
19151;SDS011;9708;53.114;9.388;2023-04-01T17:28:26;1.40;;;1.33;;
19151;SDS011;9708;53.114;9.388;2023-04-01T17:31:02;1.80;;;1.67;;
19151;SDS011;9708;53.114;9.388;2023-04-01T17:33:43;1.93;;;1.77;;
19151;SDS011;9708;53.114;9.388;2023-04-01T17:36:21;5.17;;;2.27;;